SAAR/ROS METAR and TAF weather

Enter ICAO airport designator
Station Type Date Time Source
SAAR METAR 2019/04/19 08:00 UTC NOAA

SAAR 190800Z 29002KT CAVOK 19/16 Q1010


Station Type Date Time Source
SAAR Decoded METAR 2019/04/19 08:00 UTC NOAA

Rosario Aerodrome, Argentina (SAAR) 32-55S 060-47W 25M
Apr 19, 2019 - 04:00 AM EDT / 2019.04.19 0800 UTC
Wind: from the WNW (290 degrees) at 2 MPH (2 KT):0
Visibility: greater than 7 mile(s):0
Temperature: 66 F (19 C)
Dew Point: 60 F (16 C)
Relative Humidity: 82%
Pressure (altimeter): 29.83 in. Hg (1010 hPa)
ob: SAAR 190800Z 29002KT CAVOK 19/16 Q1010
cycle: 8

Station Type Date Time Source
SAAR TAF 2019/04/19 06:19 UTC NOAA

TAF SAAR 190500Z 1906/2006 34003KT CAVOK TX29/1918Z TN15/1908Z
BECMG 19084/1910 7000 BKN040
BECMG 1913/1915 32005KT
BECMG 2005/2007 16010KT

Example: see airport list